createdAt,value
2018-12-23T00:01:50.751Z,6.27
2018-12-23T00:04:38.423Z,6.80
2018-12-23T00:07:20.679Z,5.80
2018-12-23T00:13:02.225Z,5.20
2018-12-23T00:15:37.815Z,7.10
2018-12-23T00:18:19.399Z,4.07
2018-12-23T00:20:52.449Z,5.83
2018-12-23T00:23:23.317Z,3.83
2018-12-23T00:26:05.414Z,6.20
2018-12-23T00:28:47.400Z,6.60
2018-12-23T00:31:20.504Z,8.43
2018-12-23T00:34:07.604Z,3.20
2018-12-23T00:36:50.049Z,5.33
2018-12-23T00:39:31.320Z,5.53
2018-12-23T00:42:04.536Z,7.20
2018-12-23T00:44:47.014Z,5.17
2018-12-23T00:47:21.935Z,6.83
2018-12-23T00:49:57.567Z,6.17
2018-12-23T00:52:39.116Z,3.87
2018-12-23T00:55:21.087Z,7.37
2018-12-23T00:58:02.863Z,6.97
2018-12-23T01:00:36.676Z,6.67
2018-12-23T01:03:19.020Z,7.97
2018-12-23T01:06:01.737Z,6.87
2018-12-23T01:08:44.124Z,7.00
2018-12-23T01:11:19.537Z,5.97
2018-12-23T01:14:01.616Z,8.70
2018-12-23T01:16:32.951Z,6.70
2018-12-23T01:19:04.896Z,5.00
2018-12-23T01:21:37.891Z,9.00
2018-12-23T01:24:19.759Z,6.77
2018-12-23T01:26:55.304Z,5.50
2018-12-23T01:29:36.499Z,7.57
2018-12-23T01:32:10.023Z,7.03
2018-12-23T01:34:51.715Z,10.17
2018-12-23T01:37:33.770Z,8.70
2018-12-23T01:40:15.796Z,7.33
2018-12-23T01:42:57.845Z,10.20
2018-12-23T01:45:39.686Z,6.27
2018-12-23T01:48:22.692Z,5.83
2018-12-23T01:50:55.704Z,2.73
2018-12-23T01:53:37.720Z,8.33
2018-12-23T01:56:19.575Z,7.10
2018-12-23T01:59:01.515Z,4.43
2018-12-23T02:01:34.500Z,5.37
2018-12-23T02:04:16.436Z,4.20
2018-12-23T02:06:49.740Z,8.83
2018-12-23T02:09:25.184Z,8.20
2018-12-23T02:11:59.994Z,9.40
2018-12-23T02:14:45.139Z,8.10
2018-12-23T02:17:27.448Z,8.63
2018-12-23T02:20:00.715Z,4.30
2018-12-23T02:22:42.488Z,6.10
2018-12-23T02:25:23.706Z,9.97
2018-12-23T02:28:05.504Z,7.73
2018-12-23T02:30:38.725Z,6.17
2018-12-23T02:33:20.492Z,8.20
2018-12-23T02:36:02.577Z,6.30
2018-12-23T02:38:38.101Z,6.80
2018-12-23T02:41:11.047Z,8.53
2018-12-23T02:43:54.905Z,9.37
2018-12-23T02:46:41.716Z,5.57
2018-12-23T02:49:14.840Z,4.83
2018-12-23T02:51:48.077Z,7.60
2018-12-23T02:54:30.069Z,6.87
2018-12-23T02:57:11.916Z,8.80
2018-12-23T02:59:59.868Z,10.07
2018-12-23T03:02:41.007Z,6.73
2018-12-23T03:05:22.890Z,9.90
2018-12-23T03:08:04.968Z,7.87
2018-12-23T03:10:38.115Z,8.23
2018-12-23T03:13:20.048Z,5.30
2018-12-23T03:16:01.602Z,10.00
2018-12-23T03:18:42.728Z,7.57
2018-12-23T03:21:16.104Z,6.67
2018-12-23T03:23:58.132Z,6.63
2018-12-23T03:26:33.886Z,9.57
2018-12-23T03:29:13.856Z,8.53
2018-12-23T03:31:46.676Z,5.77
2018-12-23T03:34:28.736Z,7.10
2018-12-23T03:37:10.646Z,6.60
2018-12-23T03:39:41.825Z,7.77
2018-12-23T03:42:14.723Z,5.27
2018-12-23T03:44:57.125Z,12.07
2018-12-23T03:47:43.873Z,12.33
2018-12-23T03:50:17.119Z,7.17
2018-12-23T03:52:52.775Z,5.90
2018-12-23T03:55:34.302Z,7.67
2018-12-23T03:58:16.223Z,9.57
2018-12-23T04:00:51.947Z,8.03
2018-12-23T04:03:33.320Z,5.90
2018-12-23T04:06:24.416Z,7.67
2018-12-23T04:09:13.892Z,5.20
2018-12-23T04:11:51.159Z,7.67
2018-12-23T04:14:38.377Z,7.03
2018-12-23T04:17:21.307Z,4.83
2018-12-23T04:20:02.955Z,7.57
2018-12-23T04:22:44.827Z,5.30
2018-12-23T04:25:26.529Z,5.50
2018-12-23T04:28:08.344Z,7.47
2018-12-23T04:30:41.623Z,7.03
2018-12-23T04:33:23.708Z,4.23
2018-12-23T04:36:05.326Z,8.20
2018-12-23T04:38:51.969Z,5.20
2018-12-23T04:41:33.185Z,8.63
2018-12-23T04:44:16.439Z,5.70
2018-12-23T04:47:01.251Z,6.63
2018-12-23T04:49:34.580Z,6.97
2018-12-23T04:52:07.798Z,9.20
2018-12-23T04:54:49.501Z,8.57
2018-12-23T04:57:22.648Z,7.83
2018-12-23T05:00:04.847Z,5.17
2018-12-23T05:02:46.577Z,7.90
2018-12-23T05:05:30.640Z,7.57
2018-12-23T05:08:12.535Z,6.90
2018-12-23T05:10:46.111Z,7.53
2018-12-23T05:13:27.703Z,8.60
2018-12-23T05:16:09.760Z,6.27
2018-12-23T05:18:51.505Z,8.53
2018-12-23T05:21:23.863Z,8.27
2018-12-23T05:24:05.047Z,14.87
2018-12-23T05:26:51.151Z,10.03
2018-12-23T05:29:33.092Z,10.63
2018-12-23T05:32:06.316Z,7.27
2018-12-23T05:34:47.753Z,9.37
2018-12-23T05:37:23.096Z,13.73
2018-12-23T05:39:54.041Z,6.93
2018-12-23T05:42:35.217Z,7.07
2018-12-23T05:45:23.291Z,9.93
2018-12-23T05:48:10.100Z,10.67
2018-12-23T05:50:43.617Z,11.07
2018-12-23T05:53:25.459Z,4.57
2018-12-23T05:55:59.941Z,6.73
2018-12-23T05:58:41.248Z,9.80
2018-12-23T06:01:14.463Z,7.43
2018-12-23T06:03:56.295Z,8.30
2018-12-23T06:06:38.151Z,11.40
2018-12-23T06:09:09.193Z,11.73
2018-12-23T06:11:42.406Z,6.43
2018-12-23T06:14:24.811Z,10.37
2018-12-23T06:16:59.991Z,7.23
2018-12-23T06:19:42.655Z,11.17
2018-12-23T06:22:15.901Z,12.87
2018-12-23T06:24:57.825Z,14.27
2018-12-23T06:27:38.979Z,13.23
2018-12-23T06:33:20.257Z,8.10
2018-12-23T06:36:02.201Z,9.77
2018-12-23T06:38:37.072Z,10.53
2018-12-23T06:41:09.764Z,8.27
2018-12-23T06:43:51.603Z,8.53
2018-12-23T06:46:23.099Z,9.43
2018-12-23T06:49:04.504Z,7.57
2018-12-23T06:51:37.808Z,10.13
2018-12-23T06:54:19.445Z,10.37
2018-12-23T06:57:01.472Z,7.57
2018-12-23T06:59:43.241Z,6.03
2018-12-23T07:02:18.679Z,6.40
2018-12-23T07:05:00.170Z,10.80
2018-12-23T07:07:35.735Z,9.57
2018-12-23T07:10:11.528Z,10.23
2018-12-23T07:12:53.045Z,9.37
2018-12-23T07:15:35.005Z,8.57
2018-12-23T07:18:17.243Z,9.70
2018-12-23T07:20:50.116Z,11.47
2018-12-23T07:23:31.808Z,11.13
2018-12-23T07:26:03.239Z,8.87
2018-12-23T07:28:44.958Z,6.73
2018-12-23T07:31:18.179Z,8.80
2018-12-23T07:33:59.768Z,7.20
2018-12-23T07:36:35.527Z,6.47
2018-12-23T07:39:17.661Z,8.07
2018-12-23T07:41:50.884Z,8.03
2018-12-23T07:44:37.931Z,5.30
2018-12-23T07:47:21.855Z,5.37
2018-12-23T07:50:05.939Z,8.20
2018-12-23T07:52:47.525Z,6.17
2018-12-23T07:55:29.243Z,7.43
2018-12-23T07:58:01.585Z,5.73
2018-12-23T08:00:34.011Z,7.57
2018-12-23T08:03:23.841Z,5.23
2018-12-23T08:06:07.720Z,5.77
2018-12-23T08:08:49.745Z,3.33
2018-12-23T08:11:22.960Z,6.50
2018-12-23T08:14:04.727Z,6.50
2018-12-23T08:19:46.448Z,6.80
2018-12-23T08:22:17.971Z,7.03
2018-12-23T08:24:48.942Z,8.10
2018-12-23T08:27:30.617Z,6.77
2018-12-23T08:30:07.297Z,5.80
2018-12-23T08:32:48.632Z,6.57
2018-12-23T08:35:29.858Z,5.23
2018-12-23T08:38:03.038Z,8.13
2018-12-23T08:40:36.091Z,3.50
2018-12-23T08:43:09.287Z,6.27
2018-12-23T08:45:51.131Z,4.83
2018-12-23T08:48:38.384Z,4.50
2018-12-23T08:51:12.508Z,5.77
2018-12-23T08:53:45.693Z,7.07
2018-12-23T08:56:27.584Z,4.70
2018-12-23T08:59:09.512Z,4.27
2018-12-23T09:01:42.447Z,7.70
2018-12-23T09:04:24.262Z,7.30
2018-12-23T09:07:06.240Z,4.10
2018-12-23T09:09:48.003Z,9.80
2018-12-23T09:12:29.913Z,5.70
2018-12-23T09:15:15.987Z,5.40
2018-12-23T09:17:53.632Z,5.03
2018-12-23T09:20:26.447Z,7.97
2018-12-23T09:23:08.166Z,8.03
2018-12-23T09:25:40.731Z,5.73
2018-12-23T09:28:22.660Z,5.03
2018-12-23T09:30:55.795Z,5.43
2018-12-23T09:33:33.416Z,5.97
2018-12-23T09:36:05.941Z,6.77
2018-12-23T09:38:47.925Z,5.23
2018-12-23T09:41:30.999Z,3.83
2018-12-23T09:44:12.888Z,3.97
2018-12-23T09:46:45.205Z,5.83
2018-12-23T09:49:27.512Z,7.27
2018-12-23T09:52:00.047Z,3.80
2018-12-23T09:54:43.218Z,5.80
2018-12-23T09:57:25.240Z,7.13
2018-12-23T10:00:06.669Z,5.43
2018-12-23T10:02:48.384Z,5.97
2018-12-23T10:05:22.799Z,5.97
2018-12-23T10:07:53.968Z,6.33
2018-12-23T10:10:28.577Z,3.37
2018-12-23T10:13:10.176Z,6.40
2018-12-23T10:15:51.893Z,4.37
2018-12-23T10:18:28.288Z,6.87
2018-12-23T10:21:02.255Z,2.70
2018-12-23T10:23:47.972Z,3.70
2018-12-23T10:26:29.920Z,3.60
2018-12-23T10:32:34.614Z,4.57
2018-12-23T10:35:06.207Z,4.47
2018-12-23T10:37:38.369Z,4.17
2018-12-23T10:40:11.124Z,5.83
2018-12-23T10:42:42.988Z,5.37
2018-12-23T10:45:15.192Z,3.67
2018-12-23T10:47:47.455Z,5.23
2018-12-23T10:50:20.238Z,3.77
2018-12-23T10:52:52.034Z,2.53
2018-12-23T10:55:24.057Z,5.47
2018-12-23T10:57:56.473Z,6.93
2018-12-23T11:00:28.734Z,4.57
2018-12-23T11:03:01.470Z,3.83
2018-12-23T11:05:33.442Z,6.70
2018-12-23T11:08:59.557Z,7.80
2018-12-23T11:11:30.726Z,7.60
2018-12-23T11:14:02.862Z,5.13
2018-12-23T11:16:34.650Z,4.97
2018-12-23T11:19:06.504Z,5.33
2018-12-23T11:21:38.332Z,7.20
2018-12-23T11:24:11.233Z,4.30
2018-12-23T11:26:43.241Z,4.47
2018-12-23T11:29:15.634Z,5.60
2018-12-23T11:31:54.093Z,5.83
2018-12-23T11:34:25.960Z,7.97
2018-12-23T11:36:58.638Z,4.17
2018-12-23T11:44:43.291Z,5.97
2018-12-23T11:47:15.721Z,6.87
2018-12-23T12:11:20.920Z,5.23
2018-12-23T12:13:53.238Z,5.47
2018-12-23T12:16:25.505Z,6.33
2018-12-23T12:18:58.035Z,6.20
2018-12-23T12:21:30.887Z,5.87
2018-12-23T12:24:03.396Z,5.17
2018-12-23T12:26:35.182Z,5.87
2018-12-23T12:29:07.334Z,5.70
2018-12-23T12:31:39.950Z,7.07
2018-12-23T12:34:12.921Z,14.97
2018-12-23T12:36:44.813Z,12.80
2018-12-23T12:39:17.750Z,6.53
2018-12-23T12:41:50.031Z,6.83
2018-12-23T12:44:43.379Z,7.20
2018-12-23T12:47:15.962Z,6.10
2018-12-23T12:49:47.728Z,11.03
2018-12-23T12:52:20.300Z,8.43
2018-12-23T12:54:53.093Z,6.30
2018-12-23T12:57:25.809Z,4.57
2018-12-23T13:00:03.920Z,6.37
2018-12-23T13:02:36.965Z,2.73
2018-12-23T13:05:16.728Z,14.43
2018-12-23T13:07:49.417Z,6.30
2018-12-23T13:10:22.264Z,7.77
2018-12-23T13:13:33.489Z,8.57
2018-12-23T13:16:06.442Z,6.93
2018-12-23T13:21:33.630Z,5.63
2018-12-23T13:24:05.826Z,5.63
2018-12-23T13:26:38.056Z,3.33
2018-12-23T13:29:10.366Z,4.17
2018-12-23T13:31:42.742Z,5.37
2018-12-23T13:34:40.025Z,3.67
2018-12-23T13:37:11.596Z,3.50
2018-12-23T13:39:43.252Z,4.33
2018-12-23T13:43:18.406Z,4.90
2018-12-23T13:46:45.052Z,6.00
2018-12-23T13:50:11.544Z,7.20
2018-12-23T13:53:30.456Z,4.03
2018-12-23T13:57:09.713Z,15.67
2018-12-23T14:00:32.146Z,4.33
2018-12-23T14:04:03.724Z,6.67
2018-12-23T14:07:24.873Z,3.70
2018-12-23T14:11:18.708Z,4.77
2018-12-23T14:14:00.308Z,4.27
2018-12-23T14:16:32.362Z,3.60
2018-12-23T14:19:04.519Z,5.27
2018-12-23T14:21:36.613Z,4.80
2018-12-23T14:24:08.402Z,3.60
2018-12-23T14:26:40.260Z,4.27
2018-12-23T14:29:16.627Z,3.17
2018-12-23T14:31:48.428Z,4.80
2018-12-23T14:34:20.417Z,3.10
2018-12-23T14:36:52.830Z,3.30
2018-12-23T14:39:28.244Z,5.43
2018-12-23T14:41:58.739Z,5.33
2018-12-23T14:44:47.981Z,1.77
2018-12-23T14:47:20.440Z,3.90
2018-12-23T14:49:52.654Z,4.23
2018-12-23T14:52:24.597Z,3.83
2018-12-23T14:55:00.946Z,3.23
2018-12-23T14:57:32.598Z,2.50
2018-12-23T15:00:04.411Z,5.17
2018-12-23T15:02:36.895Z,4.70
2018-12-23T15:05:08.834Z,2.23
2018-12-23T15:07:41.302Z,2.53
2018-12-23T15:10:13.121Z,3.97
2018-12-23T15:12:45.646Z,3.03
2018-12-23T15:15:18.007Z,3.17
2018-12-23T15:17:50.571Z,3.67
2018-12-23T15:20:22.484Z,3.23
2018-12-23T15:22:54.750Z,3.40
2018-12-23T15:25:27.191Z,4.27
2018-12-23T15:28:03.531Z,1.90
2018-12-23T15:30:35.609Z,2.37
2018-12-23T15:33:08.044Z,2.90
2018-12-23T15:35:42.941Z,2.20
2018-12-23T15:38:29.681Z,4.30
2018-12-23T15:41:01.529Z,4.17
2018-12-23T15:43:33.349Z,5.57
2018-12-23T15:46:07.026Z,3.80
2018-12-23T15:48:38.214Z,4.53
2018-12-23T15:51:10.424Z,3.73
2018-12-23T15:53:42.535Z,2.80
2018-12-23T15:56:14.954Z,5.63
2018-12-23T15:58:47.022Z,2.93
2018-12-23T16:01:19.490Z,4.57
2018-12-23T16:03:53.295Z,10.93
2018-12-23T16:06:25.536Z,10.90
2018-12-23T16:08:57.061Z,4.13
2018-12-23T16:11:29.223Z,3.67
2018-12-23T16:14:01.652Z,2.93
2018-12-23T16:16:33.806Z,4.70
2018-12-23T16:19:09.083Z,4.17
2018-12-23T16:21:41.203Z,3.87
2018-12-23T16:24:13.642Z,6.77
2018-12-23T16:26:46.536Z,5.37
2018-12-23T16:29:18.912Z,5.40
2018-12-23T16:31:51.402Z,6.80
2018-12-23T16:34:23.329Z,3.63
2018-12-23T16:36:55.255Z,5.70
2018-12-23T16:39:27.087Z,6.90
2018-12-23T16:41:59.498Z,4.23
2018-12-23T16:44:32.776Z,3.77
2018-12-23T16:47:04.605Z,6.60
2018-12-23T16:49:37.177Z,2.97
2018-12-23T16:52:09.345Z,2.83
2018-12-23T16:54:41.515Z,3.50
2018-12-23T16:57:15.373Z,4.20
2018-12-23T16:59:49.015Z,3.60
2018-12-23T17:02:21.856Z,2.43
2018-12-23T17:04:54.474Z,2.37
2018-12-23T17:07:26.342Z,5.47
2018-12-23T17:09:58.905Z,1.97
2018-12-23T17:12:34.354Z,3.00
2018-12-23T17:15:12.766Z,3.77
2018-12-23T17:17:46.651Z,2.10
2018-12-23T17:20:21.112Z,2.33
2018-12-23T17:22:54.129Z,2.23
2018-12-23T17:25:28.976Z,3.67
2018-12-23T17:28:01.910Z,2.80
2018-12-23T17:30:46.927Z,3.40
2018-12-23T17:33:19.043Z,4.93
2018-12-23T17:35:52.533Z,1.80
2018-12-23T17:38:24.736Z,7.63
2018-12-23T17:40:57.373Z,7.37
2018-12-23T17:43:30.494Z,7.97
2018-12-23T17:46:06.714Z,2.77
2018-12-23T17:48:40.490Z,1.80
2018-12-23T17:51:15.506Z,2.80
2018-12-23T17:54:01.576Z,2.30
2018-12-23T17:56:38.793Z,2.40
2018-12-23T17:59:15.546Z,2.50
2018-12-23T18:01:49.162Z,1.37
2018-12-23T18:04:22.115Z,2.33
2018-12-23T18:07:03.682Z,1.33
2018-12-23T18:09:34.211Z,1.53
2018-12-23T18:12:09.451Z,1.67
2018-12-23T18:14:44.600Z,1.60
2018-12-23T18:17:19.130Z,2.60
2018-12-23T18:19:52.326Z,1.97
2018-12-23T18:22:32.567Z,1.77
2018-12-23T18:25:04.711Z,0.80
2018-12-23T18:27:39.891Z,2.00
2018-12-23T18:30:16.998Z,4.20
2018-12-23T18:32:49.742Z,1.87
2018-12-23T18:35:23.218Z,0.87
2018-12-23T18:37:55.626Z,1.47
2018-12-23T18:40:33.253Z,1.27
2018-12-23T18:43:04.046Z,1.20
2018-12-23T18:45:37.596Z,2.17
2018-12-23T18:48:10.108Z,2.60
2018-12-23T18:50:43.674Z,2.03
2018-12-23T18:53:16.935Z,2.93
2018-12-23T18:55:57.031Z,2.57
2018-12-23T18:58:31.865Z,1.33
2018-12-23T19:01:06.271Z,1.77
2018-12-23T19:03:47.228Z,1.40
2018-12-23T19:06:20.512Z,0.90
2018-12-23T19:09:09.103Z,1.00
2018-12-23T19:12:13.930Z,0.50
2018-12-23T19:15:47.891Z,1.20
2018-12-23T19:19:25.410Z,1.87
2018-12-23T19:22:36.470Z,2.53
2018-12-23T19:26:12.435Z,0.97
2018-12-23T19:30:06.595Z,0.73
2018-12-23T19:33:16.585Z,2.20
2018-12-23T19:36:13.350Z,1.53
2018-12-23T19:39:44.725Z,1.60
2018-12-23T19:43:12.605Z,1.23
2018-12-23T19:47:13.427Z,0.80
2018-12-23T19:50:28.391Z,1.07
2018-12-23T19:54:17.336Z,2.03
2018-12-23T19:57:34.034Z,1.90
2018-12-23T20:00:34.287Z,2.40
2018-12-23T20:03:46.583Z,1.30
2018-12-23T20:07:20.576Z,0.80
2018-12-23T20:11:11.417Z,0.90
2018-12-23T20:14:34.259Z,0.97
2018-12-23T20:17:49.682Z,2.13
2018-12-23T20:21:43.386Z,0.57
2018-12-23T20:25:12.835Z,1.23
2018-12-23T20:28:58.673Z,1.13
2018-12-23T20:32:40.047Z,1.43
2018-12-23T20:35:38.553Z,1.07
2018-12-23T20:39:16.009Z,1.20
2018-12-23T20:42:45.718Z,0.93
2018-12-23T20:46:41.358Z,0.50
2018-12-23T20:50:23.963Z,0.73
2018-12-23T20:53:57.779Z,0.83
2018-12-23T20:57:15.908Z,1.07
2018-12-23T21:01:01.387Z,0.70
2018-12-23T21:04:17.690Z,2.07
2018-12-23T21:07:46.915Z,3.33
2018-12-23T21:11:32.294Z,1.30
2018-12-23T21:15:04.456Z,0.80
2018-12-23T21:18:25.678Z,0.60
2018-12-23T21:21:56.214Z,0.60
2018-12-23T21:25:35.159Z,1.37
2018-12-23T21:28:58.932Z,0.73
2018-12-23T21:32:45.607Z,1.70
2018-12-23T21:36:50.379Z,0.77
2018-12-23T21:40:29.897Z,1.13
2018-12-23T21:44:09.208Z,0.50
2018-12-23T21:47:21.575Z,0.83
2018-12-23T21:50:30.103Z,4.03
2018-12-23T21:54:05.132Z,0.97
2018-12-23T21:57:47.091Z,0.83
2018-12-23T22:01:32.829Z,0.73
2018-12-23T22:05:02.859Z,0.80
2018-12-23T22:08:39.332Z,2.40
2018-12-23T22:12:25.734Z,0.53
2018-12-23T22:14:58.308Z,1.17
2018-12-23T22:17:30.476Z,0.90
2018-12-23T22:20:02.545Z,0.53
2018-12-23T22:22:34.983Z,0.87
2018-12-23T22:25:06.471Z,1.30
2018-12-23T22:27:38.120Z,1.90
2018-12-23T22:30:10.099Z,0.80
2018-12-23T22:32:42.550Z,2.63
2018-12-23T22:35:15.776Z,0.67
2018-12-23T22:37:48.043Z,1.63
2018-12-23T22:40:19.862Z,0.97
2018-12-23T22:42:51.742Z,1.13
2018-12-23T22:45:23.942Z,1.43
2018-12-23T22:47:57.492Z,1.27
2018-12-23T22:50:29.894Z,0.97
2018-12-23T22:53:01.980Z,0.63
2018-12-23T22:55:33.886Z,0.90
2018-12-23T22:58:25.030Z,0.80
2018-12-23T23:00:58.012Z,0.83
2018-12-23T23:03:29.852Z,0.80
2018-12-23T23:06:02.317Z,1.73
2018-12-23T23:08:34.217Z,0.60
2018-12-23T23:11:06.565Z,0.83
2018-12-23T23:13:41.768Z,0.50
2018-12-23T23:16:18.867Z,1.70
2018-12-23T23:18:52.301Z,0.37
2018-12-23T23:21:39.853Z,0.57
2018-12-23T23:24:12.520Z,0.40
2018-12-23T23:26:46.105Z,0.83
2018-12-23T23:29:19.136Z,0.50
2018-12-23T23:31:57.059Z,0.53
2018-12-23T23:34:28.858Z,0.40
2018-12-23T23:37:00.420Z,0.60
2018-12-23T23:39:32.851Z,0.30
2018-12-23T23:42:04.817Z,0.40
2018-12-23T23:44:36.901Z,0.87
2018-12-23T23:47:09.079Z,0.40
2018-12-23T23:49:41.235Z,0.33
2018-12-23T23:52:13.125Z,0.43
2018-12-23T23:55:09.529Z,0.47
2018-12-23T23:57:42.645Z,0.40
